CSB3 weather

St-Mathieu-De-Beloeil Airport
St-Mathieu-De-Beloeil, Quebec, Canada

Public forecast

Using degrees Celsius for public forecast. Weather courtesy of forecast.io.

METAR (pilot weather report)

Closest report is MontrĂ©al / Saint-Hubert Airport, 8.7 nm (16.1 km) WSW. Retrieved 2019/04/18 21:00 UTC (58 minutes ago):

CYHU 182100Z AUTO 17023G35KT 9SM SCT080 OVC180 13/03 A2971 RMK SLP063

TAF (pilot weather forecast)

Closest forecast is MontrĂ©al / Saint-Hubert Airport, 8.7 nm (16.1 km) WSW. Retrieved 2019/04/18 18:42 UTC (3 hours ago):

TAF TAF CYHU 181739Z 1818/1918 17028G40KT P6SM BKN060 BKN160 FM190000 18020G30KT P6SM -SHRA OVC040 FM191200 23010KT 5SM -RA BR SCT008 OVC020 BECMG 1913/1915 35010KT FM191500 36010KT 4SM -RA BR BKN008 OVC020 RMK FCST BASED ON AUTO OBS. NXT FCST BY 190000Z